sensor_id;sensor_type;location;lat;lon;timestamp;P1;durP1;ratioP1;P2;durP2;ratioP2
62056;SDS011;48016;50.284;18.860;2022-09-09T00:03:57;12.55;;;9.88;;
62056;SDS011;48016;50.284;18.860;2022-09-09T00:06:43;15.27;;;10.43;;
62056;SDS011;48016;50.284;18.860;2022-09-09T00:09:17;12.40;;;9.10;;
62056;SDS011;48016;50.284;18.860;2022-09-09T00:11:48;12.45;;;10.13;;
62056;SDS011;48016;50.284;18.860;2022-09-09T00:17:06;15.10;;;11.50;;
62056;SDS011;48016;50.284;18.860;2022-09-09T00:19:41;13.73;;;11.60;;
62056;SDS011;48016;50.284;18.860;2022-09-09T00:22:18;17.80;;;11.90;;
62056;SDS011;48016;50.284;18.860;2022-09-09T00:24:53;16.67;;;12.73;;
62056;SDS011;48016;50.284;18.860;2022-09-09T00:29:58;24.25;;;15.03;;
62056;SDS011;48016;50.284;18.860;2022-09-09T00:32:40;23.20;;;14.83;;
62056;SDS011;48016;50.284;18.860;2022-09-09T00:35:15;21.63;;;15.83;;
62056;SDS011;48016;50.284;18.860;2022-09-09T00:38:08;27.00;;;15.73;;
62056;SDS011;48016;50.284;18.860;2022-09-09T00:40:49;22.65;;;15.00;;
62056;SDS011;48016;50.284;18.860;2022-09-09T00:43:25;22.35;;;14.70;;
62056;SDS011;48016;50.284;18.860;2022-09-09T00:55:11;21.15;;;13.93;;
62056;SDS011;48016;50.284;18.860;2022-09-09T00:57:45;21.40;;;14.70;;
62056;SDS011;48016;50.284;18.860;2022-09-09T01:00:22;22.73;;;15.33;;
62056;SDS011;48016;50.284;18.860;2022-09-09T01:11:20;23.10;;;15.40;;
62056;SDS011;48016;50.284;18.860;2022-09-09T01:13:49;25.85;;;17.70;;
62056;SDS011;48016;50.284;18.860;2022-09-09T01:16:36;27.83;;;17.53;;
62056;SDS011;48016;50.284;18.860;2022-09-09T01:19:04;29.95;;;18.98;;
62056;SDS011;48016;50.284;18.860;2022-09-09T01:24:27;29.75;;;20.15;;
62056;SDS011;48016;50.284;18.860;2022-09-09T01:27:13;30.33;;;20.18;;
62056;SDS011;48016;50.284;18.860;2022-09-09T01:29:44;33.88;;;20.75;;
62056;SDS011;48016;50.284;18.860;2022-09-09T01:38:05;31.63;;;20.40;;
62056;SDS011;48016;50.284;18.860;2022-09-09T01:40:32;30.40;;;19.75;;
62056;SDS011;48016;50.284;18.860;2022-09-09T01:45:27;34.38;;;20.08;;
62056;SDS011;48016;50.284;18.860;2022-09-09T01:47:55;28.65;;;18.33;;
62056;SDS011;48016;50.284;18.860;2022-09-09T01:50:23;31.88;;;20.23;;
62056;SDS011;48016;50.284;18.860;2022-09-09T01:55:23;29.98;;;19.05;;
62056;SDS011;48016;50.284;18.860;2022-09-09T02:04:31;34.40;;;21.00;;
62056;SDS011;48016;50.284;18.860;2022-09-09T02:07:06;31.15;;;19.80;;
62056;SDS011;48016;50.284;18.860;2022-09-09T02:10:13;28.93;;;18.63;;
62056;SDS011;48016;50.284;18.860;2022-09-09T02:13:01;31.30;;;19.43;;
62056;SDS011;48016;50.284;18.860;2022-09-09T02:18:07;29.33;;;18.07;;
62056;SDS011;48016;50.284;18.860;2022-09-09T02:20:37;29.63;;;19.17;;
62056;SDS011;48016;50.284;18.860;2022-09-09T02:23:08;32.98;;;20.52;;
62056;SDS011;48016;50.284;18.860;2022-09-09T02:25:37;33.38;;;19.55;;
62056;SDS011;48016;50.284;18.860;2022-09-09T02:28:07;28.68;;;18.83;;
62056;SDS011;48016;50.284;18.860;2022-09-09T02:30:36;28.85;;;18.33;;
62056;SDS011;48016;50.284;18.860;2022-09-09T02:33:06;30.08;;;19.28;;
62056;SDS011;48016;50.284;18.860;2022-09-09T02:35:37;30.70;;;18.65;;
62056;SDS011;48016;50.284;18.860;2022-09-09T02:38:07;32.43;;;19.73;;
62056;SDS011;48016;50.284;18.860;2022-09-09T02:40:37;31.03;;;18.38;;
62056;SDS011;48016;50.284;18.860;2022-09-09T02:43:04;32.05;;;18.90;;
62056;SDS011;48016;50.284;18.860;2022-09-09T02:45:43;29.43;;;18.03;;
62056;SDS011;48016;50.284;18.860;2022-09-09T02:48:21;28.93;;;18.68;;
62056;SDS011;48016;50.284;18.860;2022-09-09T02:51:15;27.80;;;18.18;;
62056;SDS011;48016;50.284;18.860;2022-09-09T02:57:01;29.30;;;18.13;;
62056;SDS011;48016;50.284;18.860;2022-09-09T02:59:32;28.43;;;18.13;;
62056;SDS011;48016;50.284;18.860;2022-09-09T03:02:00;30.98;;;19.18;;
62056;SDS011;48016;50.284;18.860;2022-09-09T03:04:27;27.63;;;17.28;;
62056;SDS011;48016;50.284;18.860;2022-09-09T03:06:55;31.43;;;17.80;;
62056;SDS011;48016;50.284;18.860;2022-09-09T03:11:50;28.68;;;17.45;;
62056;SDS011;48016;50.284;18.860;2022-09-09T03:14:17;25.85;;;17.28;;
62056;SDS011;48016;50.284;18.860;2022-09-09T03:16:47;28.97;;;17.60;;
62056;SDS011;48016;50.284;18.860;2022-09-09T03:19:14;31.00;;;17.50;;
62056;SDS011;48016;50.284;18.860;2022-09-09T03:21:41;30.63;;;17.80;;
62056;SDS011;48016;50.284;18.860;2022-09-09T03:24:08;26.15;;;15.98;;
62056;SDS011;48016;50.284;18.860;2022-09-09T03:26:36;29.48;;;18.03;;
62056;SDS011;48016;50.284;18.860;2022-09-09T03:29:04;25.83;;;16.28;;
62056;SDS011;48016;50.284;18.860;2022-09-09T03:31:33;29.38;;;17.48;;
62056;SDS011;48016;50.284;18.860;2022-09-09T03:34:02;26.10;;;15.73;;
62056;SDS011;48016;50.284;18.860;2022-09-09T03:36:29;24.47;;;15.63;;
62056;SDS011;48016;50.284;18.860;2022-09-09T03:38:56;24.48;;;14.93;;
62056;SDS011;48016;50.284;18.860;2022-09-09T03:41:24;25.83;;;16.88;;
62056;SDS011;48016;50.284;18.860;2022-09-09T03:43:52;27.40;;;16.47;;
62056;SDS011;48016;50.284;18.860;2022-09-09T03:46:21;26.23;;;16.53;;
62056;SDS011;48016;50.284;18.860;2022-09-09T03:48:50;24.13;;;15.33;;
62056;SDS011;48016;50.284;18.860;2022-09-09T03:51:20;23.58;;;15.43;;
62056;SDS011;48016;50.284;18.860;2022-09-09T03:53:48;25.50;;;16.38;;
62056;SDS011;48016;50.284;18.860;2022-09-09T03:56:15;28.50;;;15.80;;
62056;SDS011;48016;50.284;18.860;2022-09-09T03:58:42;25.35;;;16.10;;
62056;SDS011;48016;50.284;18.860;2022-09-09T04:03:41;26.38;;;16.20;;
62056;SDS011;48016;50.284;18.860;2022-09-09T04:06:09;27.43;;;16.78;;
62056;SDS011;48016;50.284;18.860;2022-09-09T04:08:39;26.33;;;16.80;;
62056;SDS011;48016;50.284;18.860;2022-09-09T04:11:07;25.90;;;16.75;;
62056;SDS011;48016;50.284;18.860;2022-09-09T04:13:37;24.60;;;15.83;;
62056;SDS011;48016;50.284;18.860;2022-09-09T04:16:05;30.50;;;16.03;;
62056;SDS011;48016;50.284;18.860;2022-09-09T04:18:33;28.05;;;16.80;;
62056;SDS011;48016;50.284;18.860;2022-09-09T04:21:00;25.18;;;15.73;;
62056;SDS011;48016;50.284;18.860;2022-09-09T04:23:28;27.68;;;16.13;;
62056;SDS011;48016;50.284;18.860;2022-09-09T04:25:56;24.75;;;16.00;;
62056;SDS011;48016;50.284;18.860;2022-09-09T04:28:26;26.70;;;16.90;;
62056;SDS011;48016;50.284;18.860;2022-09-09T04:30:55;22.80;;;15.93;;
62056;SDS011;48016;50.284;18.860;2022-09-09T04:33:23;24.78;;;16.15;;
62056;SDS011;48016;50.284;18.860;2022-09-09T04:35:53;25.73;;;15.90;;
62056;SDS011;48016;50.284;18.860;2022-09-09T04:38:21;27.00;;;17.23;;
62056;SDS011;48016;50.284;18.860;2022-09-09T04:40:52;28.35;;;17.80;;
62056;SDS011;48016;50.284;18.860;2022-09-09T04:43:20;30.93;;;19.45;;
62056;SDS011;48016;50.284;18.860;2022-09-09T04:45:49;41.30;;;27.45;;
62056;SDS011;48016;50.284;18.860;2022-09-09T04:48:18;53.13;;;34.45;;
62056;SDS011;48016;50.284;18.860;2022-09-09T04:50:59;81.60;;;50.78;;
62056;SDS011;48016;50.284;18.860;2022-09-09T04:53:27;76.20;;;48.67;;
62056;SDS011;48016;50.284;18.860;2022-09-09T04:56:05;83.73;;;54.13;;
62056;SDS011;48016;50.284;18.860;2022-09-09T04:58:36;70.75;;;45.73;;
62056;SDS011;48016;50.284;18.860;2022-09-09T05:01:06;49.43;;;31.18;;
62056;SDS011;48016;50.284;18.860;2022-09-09T05:03:34;49.23;;;31.00;;
62056;SDS011;48016;50.284;18.860;2022-09-09T05:06:09;43.43;;;28.08;;
62056;SDS011;48016;50.284;18.860;2022-09-09T05:08:37;39.20;;;22.93;;
62056;SDS011;48016;50.284;18.860;2022-09-09T05:11:22;34.60;;;20.60;;
62056;SDS011;48016;50.284;18.860;2022-09-09T05:13:54;34.13;;;22.75;;
62056;SDS011;48016;50.284;18.860;2022-09-09T05:16:22;32.73;;;21.25;;
62056;SDS011;48016;50.284;18.860;2022-09-09T05:18:49;33.38;;;20.80;;
62056;SDS011;48016;50.284;18.860;2022-09-09T05:21:18;30.80;;;20.98;;
62056;SDS011;48016;50.284;18.860;2022-09-09T05:23:46;32.18;;;20.43;;
62056;SDS011;48016;50.284;18.860;2022-09-09T05:28:42;29.40;;;17.38;;
62056;SDS011;48016;50.284;18.860;2022-09-09T05:31:09;26.03;;;18.03;;
62056;SDS011;48016;50.284;18.860;2022-09-09T05:33:40;28.50;;;18.80;;
62056;SDS011;48016;50.284;18.860;2022-09-09T05:36:10;26.75;;;17.35;;
62056;SDS011;48016;50.284;18.860;2022-09-09T05:38:42;26.80;;;18.15;;
62056;SDS011;48016;50.284;18.860;2022-09-09T05:41:10;28.65;;;18.28;;
62056;SDS011;48016;50.284;18.860;2022-09-09T05:43:38;26.23;;;17.43;;
62056;SDS011;48016;50.284;18.860;2022-09-09T05:46:06;27.70;;;17.80;;
62056;SDS011;48016;50.284;18.860;2022-09-09T05:48:40;28.53;;;17.63;;
62056;SDS011;48016;50.284;18.860;2022-09-09T05:51:09;27.88;;;16.40;;
62056;SDS011;48016;50.284;18.860;2022-09-09T05:53:42;20.80;;;15.38;;
62056;SDS011;48016;50.284;18.860;2022-09-09T05:56:11;20.57;;;14.57;;
62056;SDS011;48016;50.284;18.860;2022-09-09T05:58:44;20.28;;;13.85;;
62056;SDS011;48016;50.284;18.860;2022-09-09T06:01:14;22.15;;;14.78;;
62056;SDS011;48016;50.284;18.860;2022-09-09T06:03:43;20.93;;;14.33;;
62056;SDS011;48016;50.284;18.860;2022-09-09T06:06:13;18.15;;;12.78;;
62056;SDS011;48016;50.284;18.860;2022-09-09T06:08:42;19.75;;;14.53;;
62056;SDS011;48016;50.284;18.860;2022-09-09T06:11:16;19.68;;;13.35;;
62056;SDS011;48016;50.284;18.860;2022-09-09T06:13:44;17.53;;;13.28;;
62056;SDS011;48016;50.284;18.860;2022-09-09T06:16:13;19.30;;;12.78;;
62056;SDS011;48016;50.284;18.860;2022-09-09T06:18:41;16.53;;;12.85;;
62056;SDS011;48016;50.284;18.860;2022-09-09T06:21:17;17.88;;;13.33;;
62056;SDS011;48016;50.284;18.860;2022-09-09T06:23:46;18.27;;;13.50;;
62056;SDS011;48016;50.284;18.860;2022-09-09T06:28:45;15.80;;;12.63;;
62056;SDS011;48016;50.284;18.860;2022-09-09T06:31:14;17.50;;;11.87;;
62056;SDS011;48016;50.284;18.860;2022-09-09T06:33:50;14.95;;;12.13;;
62056;SDS011;48016;50.284;18.860;2022-09-09T06:36:25;16.18;;;12.90;;
62056;SDS011;48016;50.284;18.860;2022-09-09T06:38:53;18.00;;;12.50;;
62056;SDS011;48016;50.284;18.860;2022-09-09T06:41:21;18.00;;;11.55;;
62056;SDS011;48016;50.284;18.860;2022-09-09T06:43:49;14.33;;;11.35;;
62056;SDS011;48016;50.284;18.860;2022-09-09T06:48:54;10.98;;;9.50;;
62056;SDS011;48016;50.284;18.860;2022-09-09T06:51:33;13.87;;;9.60;;
62056;SDS011;48016;50.284;18.860;2022-09-09T06:54:03;13.23;;;9.90;;
62056;SDS011;48016;50.284;18.860;2022-09-09T06:56:32;10.20;;;8.55;;
62056;SDS011;48016;50.284;18.860;2022-09-09T06:59:04;12.85;;;9.98;;
62056;SDS011;48016;50.284;18.860;2022-09-09T07:01:36;14.43;;;10.18;;
62056;SDS011;48016;50.284;18.860;2022-09-09T07:04:07;13.78;;;8.73;;
62056;SDS011;48016;50.284;18.860;2022-09-09T07:06:42;12.80;;;8.53;;
62056;SDS011;48016;50.284;18.860;2022-09-09T07:09:11;10.20;;;7.43;;
62056;SDS011;48016;50.284;18.860;2022-09-09T07:11:42;10.20;;;7.85;;
62056;SDS011;48016;50.284;18.860;2022-09-09T07:14:11;10.95;;;8.50;;
62056;SDS011;48016;50.284;18.860;2022-09-09T07:16:40;11.83;;;8.58;;
62056;SDS011;48016;50.284;18.860;2022-09-09T07:19:08;12.78;;;8.38;;
62056;SDS011;48016;50.284;18.860;2022-09-09T07:21:35;9.25;;;6.65;;
62056;SDS011;48016;50.284;18.860;2022-09-09T07:24:03;9.53;;;6.80;;
62056;SDS011;48016;50.284;18.860;2022-09-09T07:26:33;8.33;;;6.95;;
62056;SDS011;48016;50.284;18.860;2022-09-09T07:29:01;9.30;;;6.60;;
62056;SDS011;48016;50.284;18.860;2022-09-09T07:31:33;9.48;;;5.35;;
62056;SDS011;48016;50.284;18.860;2022-09-09T07:34:03;10.40;;;6.20;;
62056;SDS011;48016;50.284;18.860;2022-09-09T07:36:38;10.05;;;6.83;;
62056;SDS011;48016;50.284;18.860;2022-09-09T07:39:09;9.75;;;6.43;;
62056;SDS011;48016;50.284;18.860;2022-09-09T07:41:40;8.50;;;5.83;;
62056;SDS011;48016;50.284;18.860;2022-09-09T07:44:14;8.75;;;6.33;;
62056;SDS011;48016;50.284;18.860;2022-09-09T07:46:43;10.75;;;6.58;;
62056;SDS011;48016;50.284;18.860;2022-09-09T07:49:11;8.53;;;6.15;;
62056;SDS011;48016;50.284;18.860;2022-09-09T07:51:39;10.50;;;7.13;;
62056;SDS011;48016;50.284;18.860;2022-09-09T07:54:10;8.20;;;5.88;;
62056;SDS011;48016;50.284;18.860;2022-09-09T07:56:40;7.83;;;5.10;;
62056;SDS011;48016;50.284;18.860;2022-09-09T07:59:08;7.70;;;5.18;;
62056;SDS011;48016;50.284;18.860;2022-09-09T08:01:37;8.60;;;5.35;;
62056;SDS011;48016;50.284;18.860;2022-09-09T08:04:13;6.98;;;5.35;;
62056;SDS011;48016;50.284;18.860;2022-09-09T08:06:46;7.25;;;5.18;;
62056;SDS011;48016;50.284;18.860;2022-09-09T08:09:21;7.20;;;5.20;;
62056;SDS011;48016;50.284;18.860;2022-09-09T08:11:51;9.30;;;5.58;;
62056;SDS011;48016;50.284;18.860;2022-09-09T08:14:19;7.80;;;5.08;;
62056;SDS011;48016;50.284;18.860;2022-09-09T08:16:47;7.55;;;5.25;;
62056;SDS011;48016;50.284;18.860;2022-09-09T08:19:17;8.25;;;5.38;;
62056;SDS011;48016;50.284;18.860;2022-09-09T08:21:44;6.78;;;5.55;;
62056;SDS011;48016;50.284;18.860;2022-09-09T08:24:12;6.40;;;5.48;;
62056;SDS011;48016;50.284;18.860;2022-09-09T08:26:43;7.08;;;4.58;;
62056;SDS011;48016;50.284;18.860;2022-09-09T08:29:12;11.33;;;5.13;;
62056;SDS011;48016;50.284;18.860;2022-09-09T08:31:41;8.38;;;4.98;;
62056;SDS011;48016;50.284;18.860;2022-09-09T08:34:20;6.33;;;4.90;;
62056;SDS011;48016;50.284;18.860;2022-09-09T08:36:49;8.20;;;5.90;;
62056;SDS011;48016;50.284;18.860;2022-09-09T08:39:18;10.00;;;5.28;;
62056;SDS011;48016;50.284;18.860;2022-09-09T09:06:44;9.03;;;5.03;;
62056;SDS011;48016;50.284;18.860;2022-09-09T09:09:28;7.05;;;4.88;;
62056;SDS011;48016;50.284;18.860;2022-09-09T09:12:18;7.55;;;4.58;;
62056;SDS011;48016;50.284;18.860;2022-09-09T09:14:48;11.20;;;5.40;;
62056;SDS011;48016;50.284;18.860;2022-09-09T09:17:19;9.55;;;5.58;;
62056;SDS011;48016;50.284;18.860;2022-09-09T09:19:48;7.28;;;4.75;;
62056;SDS011;48016;50.284;18.860;2022-09-09T09:22:23;17.85;;;5.38;;
62056;SDS011;48016;50.284;18.860;2022-09-09T09:27:58;6.25;;;5.05;;
62056;SDS011;48016;50.284;18.860;2022-09-09T09:30:41;8.23;;;5.30;;
62056;SDS011;48016;50.284;18.860;2022-09-09T09:33:20;9.10;;;4.90;;
62056;SDS011;48016;50.284;18.860;2022-09-09T09:35:53;8.98;;;5.45;;
62056;SDS011;48016;50.284;18.860;2022-09-09T09:38:22;6.95;;;5.13;;
62056;SDS011;48016;50.284;18.860;2022-09-09T09:40:52;7.90;;;5.03;;
62056;SDS011;48016;50.284;18.860;2022-09-09T09:43:25;9.87;;;5.50;;
62056;SDS011;48016;50.284;18.860;2022-09-09T09:45:55;9.13;;;6.00;;
62056;SDS011;48016;50.284;18.860;2022-09-09T09:48:24;6.80;;;4.80;;
62056;SDS011;48016;50.284;18.860;2022-09-09T09:50:57;8.40;;;4.70;;
62056;SDS011;48016;50.284;18.860;2022-09-09T09:53:33;13.60;;;5.27;;
62056;SDS011;48016;50.284;18.860;2022-09-09T09:56:06;5.73;;;4.58;;
62056;SDS011;48016;50.284;18.860;2022-09-09T10:01:23;8.38;;;4.75;;
62056;SDS011;48016;50.284;18.860;2022-09-09T10:03:55;8.85;;;4.70;;
62056;SDS011;48016;50.284;18.860;2022-09-09T10:09:02;8.35;;;4.70;;
62056;SDS011;48016;50.284;18.860;2022-09-09T10:14:20;6.53;;;4.70;;
62056;SDS011;48016;50.284;18.860;2022-09-09T10:19:21;6.90;;;4.70;;
62056;SDS011;48016;50.284;18.860;2022-09-09T10:22:17;6.08;;;3.75;;
62056;SDS011;48016;50.284;18.860;2022-09-09T10:35:29;6.47;;;4.27;;
62056;SDS011;48016;50.284;18.860;2022-09-09T10:41:18;5.75;;;3.68;;
62056;SDS011;48016;50.284;18.860;2022-09-09T10:55:40;5.03;;;3.30;;
62056;SDS011;48016;50.284;18.860;2022-09-09T10:58:17;5.00;;;2.83;;
62056;SDS011;48016;50.284;18.860;2022-09-09T11:00:56;4.13;;;3.10;;
62056;SDS011;48016;50.284;18.860;2022-09-09T11:03:29;5.13;;;3.38;;
62056;SDS011;48016;50.284;18.860;2022-09-09T11:06:00;4.18;;;3.10;;
62056;SDS011;48016;50.284;18.860;2022-09-09T11:08:34;5.35;;;3.30;;
62056;SDS011;48016;50.284;18.860;2022-09-09T11:11:13;4.85;;;3.15;;
62056;SDS011;48016;50.284;18.860;2022-09-09T11:13:52;4.78;;;3.05;;
62056;SDS011;48016;50.284;18.860;2022-09-09T11:18:58;4.40;;;3.25;;
62056;SDS011;48016;50.284;18.860;2022-09-09T11:22:05;5.35;;;3.15;;
62056;SDS011;48016;50.284;18.860;2022-09-09T11:24:34;5.78;;;2.95;;
62056;SDS011;48016;50.284;18.860;2022-09-09T11:27:11;4.63;;;3.20;;
62056;SDS011;48016;50.284;18.860;2022-09-09T11:40:46;4.93;;;2.90;;
62056;SDS011;48016;50.284;18.860;2022-09-09T11:43:16;3.70;;;2.70;;
62056;SDS011;48016;50.284;18.860;2022-09-09T11:45:52;3.78;;;2.95;;
62056;SDS011;48016;50.284;18.860;2022-09-09T11:48:29;5.95;;;3.18;;
62056;SDS011;48016;50.284;18.860;2022-09-09T11:51:09;5.13;;;3.30;;
62056;SDS011;48016;50.284;18.860;2022-09-09T11:53:53;7.23;;;3.08;;
62056;SDS011;48016;50.284;18.860;2022-09-09T11:59:05;3.65;;;2.93;;
62056;SDS011;48016;50.284;18.860;2022-09-09T12:01:48;5.08;;;3.35;;
62056;SDS011;48016;50.284;18.860;2022-09-09T12:04:27;3.78;;;3.08;;
62056;SDS011;48016;50.284;18.860;2022-09-09T12:17:50;3.63;;;3.05;;
62056;SDS011;48016;50.284;18.860;2022-09-09T12:20:30;4.28;;;3.10;;
62056;SDS011;48016;50.284;18.860;2022-09-09T12:31:25;3.65;;;2.90;;
62056;SDS011;48016;50.284;18.860;2022-09-09T12:34:17;4.35;;;2.80;;
62056;SDS011;48016;50.284;18.860;2022-09-09T12:37:08;5.57;;;3.10;;
62056;SDS011;48016;50.284;18.860;2022-09-09T12:39:52;3.85;;;3.10;;
62056;SDS011;48016;50.284;18.860;2022-09-09T12:42:23;7.53;;;3.45;;
62056;SDS011;48016;50.284;18.860;2022-09-09T12:44:57;6.18;;;3.38;;
62056;SDS011;48016;50.284;18.860;2022-09-09T12:47:37;4.30;;;3.33;;
62056;SDS011;48016;50.284;18.860;2022-09-09T12:50:15;4.53;;;2.98;;
62056;SDS011;48016;50.284;18.860;2022-09-09T12:52:52;5.65;;;3.13;;
62056;SDS011;48016;50.284;18.860;2022-09-09T12:55:23;6.48;;;3.10;;
62056;SDS011;48016;50.284;18.860;2022-09-09T12:57:54;5.18;;;3.40;;
62056;SDS011;48016;50.284;18.860;2022-09-09T13:00:23;6.20;;;3.40;;
62056;SDS011;48016;50.284;18.860;2022-09-09T13:02:55;6.30;;;3.60;;
62056;SDS011;48016;50.284;18.860;2022-09-09T13:05:28;5.65;;;3.73;;
62056;SDS011;48016;50.284;18.860;2022-09-09T13:10:38;5.30;;;2.98;;
62056;SDS011;48016;50.284;18.860;2022-09-09T13:13:26;4.93;;;3.03;;
62056;SDS011;48016;50.284;18.860;2022-09-09T13:15:59;3.50;;;2.80;;
62056;SDS011;48016;50.284;18.860;2022-09-09T13:18:29;4.80;;;2.70;;
62056;SDS011;48016;50.284;18.860;2022-09-09T13:20:58;6.80;;;2.93;;
62056;SDS011;48016;50.284;18.860;2022-09-09T13:23:27;5.53;;;2.80;;
62056;SDS011;48016;50.284;18.860;2022-09-09T13:26:00;5.93;;;2.90;;
62056;SDS011;48016;50.284;18.860;2022-09-09T13:28:31;8.18;;;3.65;;
62056;SDS011;48016;50.284;18.860;2022-09-09T13:33:37;5.83;;;3.10;;
62056;SDS011;48016;50.284;18.860;2022-09-09T13:36:08;6.53;;;3.50;;
62056;SDS011;48016;50.284;18.860;2022-09-09T13:41:05;5.60;;;3.00;;
62056;SDS011;48016;50.284;18.860;2022-09-09T13:43:36;5.38;;;3.13;;
62056;SDS011;48016;50.284;18.860;2022-09-09T13:46:04;5.97;;;2.90;;
62056;SDS011;48016;50.284;18.860;2022-09-09T13:48:58;4.90;;;2.60;;
62056;SDS011;48016;50.284;18.860;2022-09-09T13:51:46;4.83;;;2.40;;
62056;SDS011;48016;50.284;18.860;2022-09-09T13:54:15;2.83;;;2.13;;
62056;SDS011;48016;50.284;18.860;2022-09-09T13:56:44;3.73;;;2.35;;
62056;SDS011;48016;50.284;18.860;2022-09-09T13:59:13;4.28;;;2.43;;
62056;SDS011;48016;50.284;18.860;2022-09-09T14:01:42;5.05;;;2.78;;
62056;SDS011;48016;50.284;18.860;2022-09-09T14:04:10;4.43;;;2.23;;
62056;SDS011;48016;50.284;18.860;2022-09-09T14:06:38;4.33;;;2.63;;
62056;SDS011;48016;50.284;18.860;2022-09-09T14:09:07;3.33;;;2.30;;
62056;SDS011;48016;50.284;18.860;2022-09-09T14:11:37;4.80;;;2.73;;
62056;SDS011;48016;50.284;18.860;2022-09-09T14:14:06;3.75;;;2.33;;
62056;SDS011;48016;50.284;18.860;2022-09-09T14:16:34;5.30;;;2.25;;
62056;SDS011;48016;50.284;18.860;2022-09-09T14:19:01;6.48;;;2.63;;
62056;SDS011;48016;50.284;18.860;2022-09-09T14:21:28;3.73;;;2.33;;
62056;SDS011;48016;50.284;18.860;2022-09-09T14:23:55;3.93;;;2.30;;
62056;SDS011;48016;50.284;18.860;2022-09-09T14:26:24;3.50;;;2.18;;
62056;SDS011;48016;50.284;18.860;2022-09-09T14:28:52;4.90;;;2.20;;
62056;SDS011;48016;50.284;18.860;2022-09-09T14:31:19;5.65;;;2.33;;
62056;SDS011;48016;50.284;18.860;2022-09-09T14:33:47;3.10;;;2.00;;
62056;SDS011;48016;50.284;18.860;2022-09-09T14:36:14;3.55;;;2.28;;
62056;SDS011;48016;50.284;18.860;2022-09-09T14:38:41;4.65;;;3.00;;
62056;SDS011;48016;50.284;18.860;2022-09-09T14:41:10;4.23;;;2.40;;
62056;SDS011;48016;50.284;18.860;2022-09-09T14:43:38;5.13;;;2.40;;
62056;SDS011;48016;50.284;18.860;2022-09-09T14:46:13;5.53;;;3.23;;
62056;SDS011;48016;50.284;18.860;2022-09-09T14:48:42;5.77;;;2.53;;
62056;SDS011;48016;50.284;18.860;2022-09-09T14:51:15;5.05;;;2.30;;
62056;SDS011;48016;50.284;18.860;2022-09-09T14:53:46;4.87;;;2.40;;
62056;SDS011;48016;50.284;18.860;2022-09-09T14:56:14;5.43;;;2.28;;
62056;SDS011;48016;50.284;18.860;2022-09-09T14:58:43;7.83;;;3.97;;
62056;SDS011;48016;50.284;18.860;2022-09-09T15:01:12;8.45;;;5.20;;
62056;SDS011;48016;50.284;18.860;2022-09-09T15:03:48;8.73;;;5.10;;
62056;SDS011;48016;50.284;18.860;2022-09-09T15:06:27;7.57;;;5.07;;
62056;SDS011;48016;50.284;18.860;2022-09-09T15:08:56;7.50;;;3.30;;
62056;SDS011;48016;50.284;18.860;2022-09-09T15:11:27;5.98;;;3.18;;
62056;SDS011;48016;50.284;18.860;2022-09-09T15:14:00;4.63;;;2.50;;
62056;SDS011;48016;50.284;18.860;2022-09-09T15:18:56;4.10;;;2.88;;
62056;SDS011;48016;50.284;18.860;2022-09-09T15:21:25;4.58;;;2.43;;
62056;SDS011;48016;50.284;18.860;2022-09-09T15:24:02;6.08;;;2.90;;
62056;SDS011;48016;50.284;18.860;2022-09-09T15:26:30;4.70;;;2.35;;
62056;SDS011;48016;50.284;18.860;2022-09-09T15:28:58;4.13;;;2.13;;
62056;SDS011;48016;50.284;18.860;2022-09-09T15:31:28;4.60;;;2.33;;
62056;SDS011;48016;50.284;18.860;2022-09-09T15:33:58;5.23;;;2.80;;
62056;SDS011;48016;50.284;18.860;2022-09-09T15:39:06;5.90;;;2.45;;
62056;SDS011;48016;50.284;18.860;2022-09-09T15:41:36;6.60;;;2.50;;
62056;SDS011;48016;50.284;18.860;2022-09-09T15:46:33;3.83;;;2.20;;
62056;SDS011;48016;50.284;18.860;2022-09-09T15:51:43;4.23;;;2.20;;
62056;SDS011;48016;50.284;18.860;2022-09-09T15:54:16;5.93;;;2.68;;
62056;SDS011;48016;50.284;18.860;2022-09-09T15:56:45;5.40;;;2.50;;
62056;SDS011;48016;50.284;18.860;2022-09-09T15:59:15;4.90;;;2.60;;
62056;SDS011;48016;50.284;18.860;2022-09-09T16:01:42;7.03;;;2.60;;
62056;SDS011;48016;50.284;18.860;2022-09-09T16:04:10;5.93;;;2.40;;
62056;SDS011;48016;50.284;18.860;2022-09-09T16:06:38;4.73;;;2.33;;
62056;SDS011;48016;50.284;18.860;2022-09-09T16:09:06;9.58;;;4.53;;
62056;SDS011;48016;50.284;18.860;2022-09-09T16:11:35;7.43;;;2.70;;
62056;SDS011;48016;50.284;18.860;2022-09-09T16:14:04;6.80;;;2.80;;
62056;SDS011;48016;50.284;18.860;2022-09-09T16:16:32;7.30;;;3.20;;
62056;SDS011;48016;50.284;18.860;2022-09-09T16:19:09;9.65;;;4.98;;
62056;SDS011;48016;50.284;18.860;2022-09-09T16:21:40;4.70;;;3.20;;
62056;SDS011;48016;50.284;18.860;2022-09-09T16:24:13;5.43;;;2.90;;
62056;SDS011;48016;50.284;18.860;2022-09-09T16:26:48;4.28;;;2.75;;
62056;SDS011;48016;50.284;18.860;2022-09-09T16:29:17;4.87;;;2.57;;
62056;SDS011;48016;50.284;18.860;2022-09-09T16:31:45;5.78;;;2.65;;
62056;SDS011;48016;50.284;18.860;2022-09-09T16:34:13;4.25;;;2.60;;
62056;SDS011;48016;50.284;18.860;2022-09-09T16:36:45;6.13;;;2.73;;
62056;SDS011;48016;50.284;18.860;2022-09-09T16:39:14;6.93;;;3.03;;
62056;SDS011;48016;50.284;18.860;2022-09-09T16:41:43;5.70;;;3.03;;
62056;SDS011;48016;50.284;18.860;2022-09-09T16:44:12;7.50;;;2.90;;
62056;SDS011;48016;50.284;18.860;2022-09-09T16:46:42;5.33;;;2.80;;
62056;SDS011;48016;50.284;18.860;2022-09-09T16:49:11;4.63;;;3.08;;
62056;SDS011;48016;50.284;18.860;2022-09-09T16:51:42;7.40;;;5.55;;
62056;SDS011;48016;50.284;18.860;2022-09-09T16:54:13;7.93;;;6.10;;
62056;SDS011;48016;50.284;18.860;2022-09-09T16:56:43;4.78;;;3.83;;
62056;SDS011;48016;50.284;18.860;2022-09-09T16:59:18;5.58;;;4.50;;
62056;SDS011;48016;50.284;18.860;2022-09-09T17:01:48;7.68;;;5.50;;
62056;SDS011;48016;50.284;18.860;2022-09-09T17:04:25;8.33;;;4.80;;
62056;SDS011;48016;50.284;18.860;2022-09-09T17:06:54;6.60;;;4.10;;
62056;SDS011;48016;50.284;18.860;2022-09-09T17:09:24;7.23;;;4.40;;
62056;SDS011;48016;50.284;18.860;2022-09-09T17:11:55;6.85;;;4.93;;
62056;SDS011;48016;50.284;18.860;2022-09-09T17:16:50;6.93;;;5.18;;
62056;SDS011;48016;50.284;18.860;2022-09-09T17:19:17;8.48;;;4.88;;
62056;SDS011;48016;50.284;18.860;2022-09-09T17:21:44;6.88;;;5.48;;
62056;SDS011;48016;50.284;18.860;2022-09-09T17:24:13;7.93;;;6.58;;
62056;SDS011;48016;50.284;18.860;2022-09-09T17:26:42;9.25;;;5.60;;
62056;SDS011;48016;50.284;18.860;2022-09-09T17:29:11;8.53;;;4.70;;
62056;SDS011;48016;50.284;18.860;2022-09-09T17:31:38;10.58;;;4.78;;
62056;SDS011;48016;50.284;18.860;2022-09-09T17:34:08;9.00;;;3.97;;
62056;SDS011;48016;50.284;18.860;2022-09-09T17:36:35;6.40;;;3.43;;
62056;SDS011;48016;50.284;18.860;2022-09-09T17:39:04;6.95;;;3.70;;
62056;SDS011;48016;50.284;18.860;2022-09-09T17:41:34;6.70;;;4.03;;
62056;SDS011;48016;50.284;18.860;2022-09-09T17:44:05;6.85;;;3.93;;
62056;SDS011;48016;50.284;18.860;2022-09-09T17:46:35;5.68;;;3.70;;
62056;SDS011;48016;50.284;18.860;2022-09-09T17:49:04;4.83;;;3.33;;
62056;SDS011;48016;50.284;18.860;2022-09-09T17:51:39;5.83;;;3.45;;
62056;SDS011;48016;50.284;18.860;2022-09-09T17:54:10;8.20;;;4.20;;